createdAt,value
2017-05-16T00:00:56.704Z,0
2017-05-16T00:01:56.421Z,0
2017-05-16T00:02:56.966Z,0
2017-05-16T00:03:56.786Z,0
2017-05-16T00:04:56.196Z,0
2017-05-16T00:05:56.845Z,0
2017-05-16T00:06:56.560Z,0
2017-05-16T00:07:57.155Z,0
2017-05-16T00:08:56.620Z,0
2017-05-16T00:09:56.965Z,0
2017-05-16T00:10:56.672Z,0
2017-05-16T00:11:57.013Z,0
2017-05-16T00:12:56.678Z,0
2017-05-16T00:13:56.758Z,0
2017-05-16T00:14:56.479Z,0
2017-05-16T00:15:57.129Z,0
2017-05-16T00:16:57.153Z,0
2017-05-16T00:17:57.065Z,0
2017-05-16T00:18:57.210Z,0
2017-05-16T00:19:56.615Z,0
2017-05-16T00:20:57.286Z,0
2017-05-16T00:21:56.980Z,0
2017-05-16T00:22:56.962Z,0
2017-05-16T00:23:57.357Z,0
2017-05-16T00:24:57.383Z,0
2017-05-16T00:25:57.083Z,0
2017-05-16T00:26:56.810Z,0
2017-05-16T00:27:57.349Z,0
2017-05-16T00:28:57.491Z,0
2017-05-16T00:29:56.895Z,0
2017-05-16T00:30:57.549Z,0
2017-05-16T00:31:56.947Z,0
2017-05-16T00:32:57.874Z,0
2017-05-16T00:33:57.323Z,0
2017-05-16T00:34:57.671Z,0
2017-05-16T00:35:57.066Z,0
2017-05-16T00:36:57.400Z,0
2017-05-16T00:37:59.456Z,0
2017-05-16T00:38:57.774Z,0
2017-05-16T00:39:57.485Z,0
2017-05-16T00:40:57.828Z,0
2017-05-16T00:41:57.845Z,0
2017-05-16T00:42:57.455Z,0
2017-05-16T00:43:57.911Z,0
2017-05-16T00:44:57.942Z,0
2017-05-16T00:45:57.972Z,0
2017-05-16T00:46:58.013Z,0
2017-05-16T00:47:57.902Z,0
2017-05-16T00:48:58.058Z,0
2017-05-16T00:49:57.459Z,0
2017-05-16T00:50:58.112Z,0
2017-05-16T00:51:57.201Z,0
2017-05-16T00:52:58.060Z,0
2017-05-16T00:53:57.887Z,0
2017-05-16T00:54:57.915Z,0
2017-05-16T00:55:57.930Z,0
2017-05-16T00:56:58.275Z,0
2017-05-16T00:57:58.251Z,0
2017-05-16T00:58:58.022Z,0
2017-05-16T00:59:58.358Z,0
2017-05-16T01:00:58.072Z,0
2017-05-16T01:01:58.411Z,0
2017-05-16T01:02:58.145Z,0
2017-05-16T01:03:58.482Z,0
2017-05-16T01:04:57.877Z,0
2017-05-16T01:05:58.212Z,0
2017-05-16T01:06:58.260Z,0
2017-05-16T01:07:57.961Z,0
2017-05-16T01:08:58.522Z,0
2017-05-16T01:09:58.645Z,0
2017-05-16T01:10:58.358Z,0
2017-05-16T01:11:58.699Z,0
2017-05-16T01:12:58.413Z,0
2017-05-16T01:13:58.965Z,0
2017-05-16T01:14:58.474Z,0
2017-05-16T01:15:58.495Z,0
2017-05-16T01:16:58.531Z,0
2017-05-16T01:17:58.244Z,0
2017-05-16T01:18:58.781Z,0
2017-05-16T01:19:58.614Z,0
2017-05-16T01:20:58.635Z,0
2017-05-16T01:21:58.351Z,0
2017-05-16T01:22:59.009Z,0
2017-05-16T01:23:59.288Z,0
2017-05-16T01:24:58.753Z,0
2017-05-16T01:25:58.465Z,0
2017-05-16T01:26:59.115Z,0
2017-05-16T01:27:58.525Z,0
2017-05-16T01:28:59.428Z,0
2017-05-16T01:29:58.581Z,0
2017-05-16T01:30:58.918Z,0
2017-05-16T01:31:59.270Z,0
2017-05-16T01:32:59.298Z,0
2017-05-16T01:33:59.297Z,0
2017-05-16T01:34:59.343Z,0
2017-05-16T01:35:59.374Z,0
2017-05-16T01:36:59.091Z,0
2017-05-16T01:37:58.799Z,0
2017-05-16T01:38:59.661Z,0
2017-05-16T01:39:59.486Z,0
2017-05-16T01:40:58.891Z,0
2017-05-16T01:41:59.236Z,0
2017-05-16T01:42:59.260Z,0
2017-05-16T01:43:59.542Z,0
2017-05-16T01:44:59.313Z,0
2017-05-16T01:45:59.338Z,0
2017-05-16T01:46:59.679Z,0
2017-05-16T01:47:59.719Z,0
2017-05-16T01:48:59.628Z,0
2017-05-16T01:49:59.765Z,0
2017-05-16T01:50:59.474Z,0
2017-05-16T01:51:59.826Z,0
2017-05-16T01:52:59.531Z,0
2017-05-16T01:54:00.077Z,0
2017-05-16T01:54:59.588Z,0
2017-05-16T01:55:59.618Z,0
2017-05-16T01:56:59.964Z,0
2017-05-16T01:57:59.678Z,0
2017-05-16T01:59:00.217Z,0
2017-05-16T01:59:59.425Z,0
2017-05-16T02:00:59.129Z,0
2017-05-16T02:01:59.790Z,0
2017-05-16T02:03:00.132Z,0
2017-05-16T02:04:00.349Z,0
2017-05-16T02:04:59.875Z,0
2017-05-16T02:06:00.199Z,0
2017-05-16T02:06:59.973Z,0
2017-05-16T02:07:59.962Z,0
2017-05-16T02:09:00.497Z,0
2017-05-16T02:10:00.065Z,0
2017-05-16T02:11:00.045Z,0
2017-05-16T02:12:00.066Z,0
2017-05-16T02:13:00.095Z,0
2017-05-16T02:14:00.388Z,0
2017-05-16T02:15:00.461Z,0
2017-05-16T02:16:00.543Z,0
2017-05-16T02:16:59.902Z,0
2017-05-16T02:18:00.559Z,0
2017-05-16T02:19:00.202Z,0
2017-05-16T02:20:00.604Z,0
2017-05-16T02:21:00.633Z,0
2017-05-16T02:22:00.349Z,0
2017-05-16T02:23:00.380Z,0
2017-05-16T02:24:00.706Z,0
2017-05-16T02:25:00.436Z,0
2017-05-16T02:26:00.457Z,0
2017-05-16T02:26:59.863Z,0
2017-05-16T02:28:00.518Z,0
2017-05-16T02:29:00.484Z,0
2017-05-16T02:30:00.263Z,0
2017-05-16T02:31:00.909Z,0
2017-05-16T02:32:00.934Z,0
2017-05-16T02:33:00.646Z,0
2017-05-16T02:34:00.627Z,0
2017-05-16T02:35:00.713Z,0
2017-05-16T02:36:01.050Z,0
2017-05-16T02:37:00.458Z,0
2017-05-16T02:38:00.799Z,0
2017-05-16T02:39:01.021Z,0
2017-05-16T02:40:00.852Z,0
2017-05-16T02:41:01.192Z,0
2017-05-16T02:42:01.217Z,0
2017-05-16T02:43:00.626Z,0
2017-05-16T02:44:00.851Z,0
2017-05-16T02:45:01.304Z,0
2017-05-16T02:46:01.328Z,0
2017-05-16T02:47:01.351Z,0
2017-05-16T02:48:01.385Z,0
2017-05-16T02:49:01.667Z,0
2017-05-16T02:50:01.435Z,0
2017-05-16T02:51:01.158Z,0
2017-05-16T02:52:00.873Z,0
2017-05-16T02:53:01.218Z,0
2017-05-16T02:54:01.129Z,0
2017-05-16T02:55:01.580Z,0
2017-05-16T02:56:01.609Z,0
2017-05-16T02:57:01.632Z,0
2017-05-16T02:58:01.353Z,0
2017-05-16T02:59:01.890Z,0
2017-05-16T03:00:01.733Z,0
2017-05-16T03:01:01.748Z,0
2017-05-16T03:02:01.466Z,0
2017-05-16T03:03:01.806Z,0
2017-05-16T03:04:02.033Z,0
2017-05-16T03:05:01.867Z,0
2017-05-16T03:06:01.889Z,0
2017-05-16T03:07:01.610Z,0
2017-05-16T03:08:01.318Z,0
2017-05-16T03:09:01.853Z,0
2017-05-16T03:10:02.027Z,0
2017-05-16T03:11:02.024Z,0
2017-05-16T03:12:01.740Z,0
2017-05-16T03:13:02.090Z,0
2017-05-16T03:14:02.007Z,0
2017-05-16T03:15:01.832Z,0
2017-05-16T03:16:01.537Z,0
2017-05-16T03:17:01.937Z,0
2017-05-16T03:18:01.913Z,0
2017-05-16T03:19:02.497Z,0
2017-05-16T03:20:02.286Z,0
2017-05-16T03:21:02.308Z,0
2017-05-16T03:22:01.721Z,0
2017-05-16T03:23:02.361Z,0
2017-05-16T03:24:02.587Z,0
2017-05-16T03:25:02.414Z,0
2017-05-16T03:26:02.132Z,0
2017-05-16T03:27:02.205Z,4
2017-05-16T03:28:01.865Z,4
2017-05-16T03:29:01.897Z,4
2017-05-16T03:30:02.289Z,0
2017-05-16T03:31:02.584Z,4
2017-05-16T03:32:02.304Z,4
2017-05-16T03:33:02.652Z,8
2017-05-16T03:34:02.349Z,4
2017-05-16T03:35:02.696Z,8
2017-05-16T03:36:02.455Z,8
2017-05-16T03:37:02.750Z,12
2017-05-16T03:38:02.779Z,12
2017-05-16T03:39:02.485Z,12
2017-05-16T03:40:02.822Z,16
2017-05-16T03:41:02.864Z,16
2017-05-16T03:42:02.888Z,20
2017-05-16T03:43:02.920Z,20
2017-05-16T03:44:02.938Z,24
2017-05-16T03:45:02.964Z,24
2017-05-16T03:46:02.375Z,28
2017-05-16T03:47:02.716Z,28
2017-05-16T03:48:02.740Z,32
2017-05-16T03:49:03.077Z,36
2017-05-16T03:50:03.008Z,40
2017-05-16T03:51:03.139Z,40
2017-05-16T03:52:02.856Z,48
2017-05-16T03:53:02.872Z,52
2017-05-16T03:54:02.900Z,56
2017-05-16T03:55:03.137Z,60
2017-05-16T03:56:03.274Z,64
2017-05-16T03:57:02.991Z,68
2017-05-16T03:58:03.332Z,72
2017-05-16T03:59:03.039Z,76
2017-05-16T04:00:03.581Z,80
2017-05-16T04:01:03.410Z,88
2017-05-16T04:02:03.443Z,96
2017-05-16T04:03:03.470Z,100
2017-05-16T04:04:03.181Z,108
2017-05-16T04:05:03.470Z,112
2017-05-16T04:06:03.555Z,116
2017-05-16T04:07:03.582Z,124
2017-05-16T04:08:03.608Z,132
2017-05-16T04:09:03.624Z,136
2017-05-16T04:10:03.870Z,144
2017-05-16T04:11:03.067Z,152
2017-05-16T04:12:03.723Z,156
2017-05-16T04:13:03.448Z,160
2017-05-16T04:14:03.770Z,172
2017-05-16T04:15:03.373Z,176
2017-05-16T04:16:03.843Z,184
2017-05-16T04:17:03.856Z,192
2017-05-16T04:18:03.890Z,200
2017-05-16T04:19:03.590Z,208
2017-05-16T04:20:05.382Z,216
2017-05-16T04:21:03.978Z,224
2017-05-16T04:22:03.687Z,228
2017-05-16T04:23:04.027Z,236
2017-05-16T04:24:04.045Z,244
2017-05-16T04:25:04.336Z,252
2017-05-16T04:26:04.110Z,256
2017-05-16T04:27:04.134Z,264
2017-05-16T04:28:04.163Z,272
2017-05-16T04:29:03.560Z,276
2017-05-16T04:30:04.101Z,280
2017-05-16T04:31:04.250Z,288
2017-05-16T04:32:03.963Z,296
2017-05-16T04:33:03.995Z,304
2017-05-16T04:34:04.016Z,316
2017-05-16T04:35:04.241Z,324
2017-05-16T04:36:04.435Z,328
2017-05-16T04:37:04.108Z,336
2017-05-16T04:38:04.127Z,344
2017-05-16T04:39:04.149Z,348
2017-05-16T04:40:04.381Z,360
2017-05-16T04:41:04.522Z,364
2017-05-16T04:42:03.928Z,368
2017-05-16T04:43:04.588Z,376
2017-05-16T04:44:04.292Z,380
2017-05-16T04:45:04.527Z,388
2017-05-16T04:46:04.661Z,392
2017-05-16T04:47:04.687Z,396
2017-05-16T04:48:04.727Z,400
2017-05-16T04:49:04.736Z,404
2017-05-16T04:50:04.406Z,408
2017-05-16T04:51:04.489Z,412
2017-05-16T04:52:04.516Z,420
2017-05-16T04:53:04.856Z,424
2017-05-16T04:54:04.876Z,428
2017-05-16T04:55:04.902Z,436
2017-05-16T04:56:04.625Z,440
2017-05-16T04:57:04.966Z,452
2017-05-16T04:58:04.994Z,456
2017-05-16T04:59:04.712Z,464
2017-05-16T05:00:04.676Z,476
2017-05-16T05:01:05.077Z,484
2017-05-16T05:02:04.794Z,488
2017-05-16T05:03:05.130Z,492
2017-05-16T05:04:04.536Z,492
2017-05-16T05:05:06.270Z,488
2017-05-16T05:06:05.225Z,492
2017-05-16T05:07:04.933Z,500
2017-05-16T05:08:05.271Z,500
2017-05-16T05:09:05.299Z,508
2017-05-16T05:10:05.012Z,504
2017-05-16T05:11:05.353Z,520
2017-05-16T05:12:05.394Z,536
2017-05-16T05:13:04.786Z,544
2017-05-16T05:14:05.115Z,544
2017-05-16T05:15:05.153Z,548
2017-05-16T05:16:05.493Z,552
2017-05-16T05:17:05.210Z,556
2017-05-16T05:18:05.234Z,560
2017-05-16T05:19:05.583Z,564
2017-05-16T05:20:05.599Z,572
2017-05-16T05:21:05.319Z,576
2017-05-16T05:22:05.042Z,584
2017-05-16T05:23:05.682Z,588
2017-05-16T05:24:05.710Z,592
2017-05-16T05:25:05.737Z,588
2017-05-16T05:26:06.010Z,592
2017-05-16T05:27:05.481Z,584
2017-05-16T05:28:05.511Z,592
2017-05-16T05:29:05.538Z,600
2017-05-16T05:30:05.885Z,604
2017-05-16T05:31:05.528Z,608
2017-05-16T05:32:05.935Z,612
2017-05-16T05:33:05.964Z,616
2017-05-16T05:34:05.674Z,616
2017-05-16T05:35:06.020Z,616
2017-05-16T05:36:05.979Z,616
2017-05-16T05:37:06.089Z,620
2017-05-16T05:38:05.790Z,624
2017-05-16T05:39:05.810Z,636
2017-05-16T05:40:05.842Z,644
2017-05-16T05:41:06.389Z,648
2017-05-16T05:42:05.903Z,664
2017-05-16T05:43:06.302Z,676
2017-05-16T05:44:05.633Z,692
2017-05-16T05:45:05.985Z,704
2017-05-16T05:46:06.575Z,720
2017-05-16T05:47:06.352Z,724
2017-05-16T05:48:06.379Z,736
2017-05-16T05:49:06.409Z,748
2017-05-16T05:50:06.122Z,748
2017-05-16T05:51:06.664Z,748
2017-05-16T05:52:06.490Z,756
2017-05-16T05:53:06.204Z,768
2017-05-16T05:54:06.230Z,772
2017-05-16T05:55:06.259Z,776
2017-05-16T05:56:06.490Z,788
2017-05-16T05:57:06.624Z,792
2017-05-16T05:58:06.660Z,800
2017-05-16T05:59:06.367Z,808
2017-05-16T06:00:06.710Z,820
2017-05-16T06:01:06.941Z,824
2017-05-16T06:02:06.763Z,832
2017-05-16T06:03:06.802Z,832
2017-05-16T06:04:06.829Z,832
2017-05-16T06:05:06.530Z,840
2017-05-16T06:06:07.079Z,848
2017-05-16T06:07:06.287Z,848
2017-05-16T06:08:06.623Z,856
2017-05-16T06:09:06.958Z,856
2017-05-16T06:10:06.989Z,852
2017-05-16T06:11:06.908Z,860
2017-05-16T06:12:06.734Z,864
2017-05-16T06:13:07.074Z,864
2017-05-16T06:14:06.789Z,868
2017-05-16T06:15:07.130Z,868
2017-05-16T06:16:07.405Z,864
2017-05-16T06:17:07.231Z,868
2017-05-16T06:18:06.900Z,860
2017-05-16T06:19:07.233Z,856
2017-05-16T06:20:07.269Z,844
2017-05-16T06:21:07.179Z,836
2017-05-16T06:22:07.327Z,832
2017-05-16T06:23:07.044Z,816
2017-05-16T06:24:07.057Z,812
2017-05-16T06:25:07.091Z,816
2017-05-16T06:26:07.686Z,820
2017-05-16T06:27:07.467Z,820
2017-05-16T06:28:07.184Z,820
2017-05-16T06:29:07.538Z,820
2017-05-16T06:30:07.589Z,808
2017-05-16T06:31:07.837Z,816
2017-05-16T06:32:07.600Z,824
2017-05-16T06:33:07.629Z,832
2017-05-16T06:34:07.656Z,832
2017-05-16T06:35:07.370Z,832
2017-05-16T06:36:07.657Z,836
2017-05-16T06:37:07.743Z,836
2017-05-16T06:38:07.760Z,840
2017-05-16T06:39:07.480Z,840
2017-05-16T06:40:07.870Z,840
2017-05-16T06:41:07.791Z,848
2017-05-16T06:42:07.566Z,852
2017-05-16T06:43:07.287Z,856
2017-05-16T06:44:06.996Z,856
2017-05-16T06:45:07.655Z,860
2017-05-16T06:46:07.873Z,856
2017-05-16T06:47:08.022Z,840
2017-05-16T06:48:07.735Z,840
2017-05-16T06:49:08.076Z,844
2017-05-16T06:50:08.109Z,848
2017-05-16T06:51:08.066Z,848
2017-05-16T06:52:08.150Z,848
2017-05-16T06:53:07.868Z,856
2017-05-16T06:54:07.272Z,852
2017-05-16T06:55:08.249Z,848
2017-05-16T06:56:09.081Z,852
2017-05-16T06:57:07.981Z,852
2017-05-16T06:58:08.323Z,856
2017-05-16T06:59:08.356Z,852
2017-05-16T07:00:08.068Z,852
2017-05-16T07:01:08.663Z,844
2017-05-16T07:02:08.122Z,832
2017-05-16T07:03:08.459Z,828
2017-05-16T07:04:08.498Z,824
2017-05-16T07:05:08.203Z,808
2017-05-16T07:06:08.242Z,800
2017-05-16T07:07:08.266Z,788
2017-05-16T07:08:08.282Z,776
2017-05-16T07:09:08.640Z,768
2017-05-16T07:10:08.657Z,760
2017-05-16T07:11:08.058Z,768
2017-05-16T07:12:09.855Z,756
2017-05-16T07:13:08.422Z,752
2017-05-16T07:14:08.781Z,756
2017-05-16T07:15:08.492Z,760
2017-05-16T07:16:08.834Z,764
2017-05-16T07:17:10.609Z,764
2017-05-16T07:18:08.887Z,768
2017-05-16T07:19:08.922Z,760
2017-05-16T07:20:08.316Z,752
2017-05-16T07:21:08.664Z,756
2017-05-16T07:22:10.750Z,756
2017-05-16T07:23:08.402Z,768
2017-05-16T07:24:09.055Z,764
2017-05-16T07:25:09.088Z,768
2017-05-16T07:26:09.104Z,780
2017-05-16T07:27:09.030Z,788
2017-05-16T07:28:09.170Z,788
2017-05-16T07:29:08.872Z,800
2017-05-16T07:30:08.907Z,808
2017-05-16T07:31:08.941Z,820
2017-05-16T07:32:09.163Z,828
2017-05-16T07:33:09.302Z,836
2017-05-16T07:34:09.339Z,836
2017-05-16T07:35:09.047Z,840
2017-05-16T07:36:08.770Z,848
2017-05-16T07:37:09.625Z,848
2017-05-16T07:38:08.826Z,848
2017-05-16T07:39:09.487Z,844
2017-05-16T07:40:09.503Z,840
2017-05-16T07:41:09.213Z,816
2017-05-16T07:42:09.293Z,844
2017-05-16T07:43:09.582Z,840
2017-05-16T07:44:09.298Z,844
2017-05-16T07:45:09.336Z,840
2017-05-16T07:46:09.672Z,840
2017-05-16T07:47:09.389Z,836
2017-05-16T07:48:09.102Z,840
2017-05-16T07:49:09.763Z,844
2017-05-16T07:50:09.468Z,856
2017-05-16T07:51:09.192Z,868
2017-05-16T07:52:09.525Z,872
2017-05-16T07:53:09.870Z,872
2017-05-16T07:54:09.907Z,880
2017-05-16T07:55:09.300Z,884
2017-05-16T07:56:09.322Z,892
2017-05-16T07:57:09.660Z,896
2017-05-16T07:58:09.694Z,904
2017-05-16T07:59:09.102Z,912
2017-05-16T08:00:09.752Z,904
2017-05-16T08:01:09.776Z,904
2017-05-16T08:02:10.113Z,912
2017-05-16T08:03:10.149Z,912
2017-05-16T08:04:10.174Z,912
2017-05-16T08:05:10.200Z,912
2017-05-16T08:06:09.927Z,916
2017-05-16T08:07:09.941Z,912
2017-05-16T08:08:09.973Z,916
2017-05-16T08:09:10.066Z,912
2017-05-16T08:10:10.031Z,908
2017-05-16T08:11:10.372Z,908
2017-05-16T08:12:09.466Z,896
2017-05-16T08:13:10.629Z,888
2017-05-16T08:14:10.470Z,884
2017-05-16T08:15:10.486Z,876
2017-05-16T08:16:10.523Z,876
2017-05-16T08:17:10.232Z,876
2017-05-16T08:18:10.513Z,868
2017-05-16T08:19:10.283Z,864
2017-05-16T08:20:10.629Z,860
2017-05-16T08:21:10.344Z,852
2017-05-16T08:22:10.676Z,852
2017-05-16T08:23:10.660Z,860
2017-05-16T08:24:10.123Z,860
2017-05-16T08:25:10.451Z,860
2017-05-16T08:26:10.796Z,864
2017-05-16T08:27:10.830Z,860
2017-05-16T08:28:10.741Z,864
2017-05-16T08:29:10.569Z,856
2017-05-16T08:30:10.596Z,860
2017-05-16T08:31:10.621Z,864
2017-05-16T08:32:10.974Z,872
2017-05-16T08:33:10.888Z,872
2017-05-16T08:34:10.710Z,864
2017-05-16T08:35:10.742Z,868
2017-05-16T08:36:10.763Z,872
2017-05-16T08:37:11.117Z,876
2017-05-16T08:38:11.340Z,876
2017-05-16T08:39:11.166Z,872
2017-05-16T08:40:10.883Z,876
2017-05-16T08:41:10.595Z,884
2017-05-16T08:42:10.928Z,888
2017-05-16T08:43:11.525Z,888
2017-05-16T08:44:11.305Z,892
2017-05-16T08:45:11.027Z,888
2017-05-16T08:46:11.051Z,888
2017-05-16T08:47:11.391Z,892
2017-05-16T08:48:11.304Z,896
2017-05-16T08:49:11.447Z,888
2017-05-16T08:50:11.473Z,896
2017-05-16T08:51:11.499Z,900
2017-05-16T08:52:11.535Z,900
2017-05-16T08:53:11.809Z,900
2017-05-16T08:54:11.277Z,912
2017-05-16T08:55:11.306Z,916
2017-05-16T08:56:11.331Z,920
2017-05-16T08:57:11.367Z,928
2017-05-16T08:58:11.900Z,932
2017-05-16T08:59:11.428Z,940
2017-05-16T09:00:11.757Z,948
2017-05-16T09:01:11.482Z,956
2017-05-16T09:02:11.183Z,956
2017-05-16T09:03:11.775Z,960
2017-05-16T09:04:11.565Z,972
2017-05-16T09:05:11.898Z,980
2017-05-16T09:06:11.305Z,988
2017-05-16T09:07:12.007Z,988
2017-05-16T09:08:12.187Z,996
2017-05-16T09:09:12.013Z,992
2017-05-16T09:10:12.050Z,980
2017-05-16T09:11:12.075Z,968
2017-05-16T09:12:11.482Z,964
2017-05-16T09:13:12.333Z,968
2017-05-16T09:14:12.160Z,972
2017-05-16T09:15:11.560Z,980
2017-05-16T09:16:12.218Z,992
2017-05-16T09:17:11.926Z,1000
2017-05-16T09:18:12.522Z,1016
2017-05-16T09:19:12.299Z,1028
2017-05-16T09:20:12.329Z,1032
2017-05-16T09:21:12.041Z,1036
2017-05-16T09:22:12.081Z,1036
2017-05-16T09:23:11.987Z,1036
2017-05-16T09:24:12.441Z,1036
2017-05-16T09:25:12.465Z,1040
2017-05-16T09:26:12.497Z,1044
2017-05-16T09:27:11.898Z,1052
2017-05-16T09:28:12.131Z,1060
2017-05-16T09:29:12.318Z,1072
2017-05-16T09:30:12.604Z,1080
2017-05-16T09:31:12.329Z,1084
2017-05-16T09:32:12.662Z,1080
2017-05-16T09:33:12.634Z,1072
2017-05-16T09:34:12.409Z,1076
2017-05-16T09:35:12.753Z,1076
2017-05-16T09:36:12.473Z,1084
2017-05-16T09:37:12.497Z,1080
2017-05-16T09:38:12.786Z,1076
2017-05-16T09:39:12.863Z,1072
2017-05-16T09:40:12.909Z,1072
2017-05-16T09:41:12.942Z,1068
2017-05-16T09:42:12.642Z,1060
2017-05-16T09:43:12.877Z,1060
2017-05-16T09:44:13.015Z,1060
2017-05-16T09:45:13.041Z,1064
2017-05-16T09:46:13.065Z,1068
2017-05-16T09:47:12.785Z,1060
2017-05-16T09:48:13.326Z,1048
2017-05-16T09:49:13.160Z,1052
2017-05-16T09:50:12.872Z,1068
2017-05-16T09:51:12.896Z,1076
2017-05-16T09:52:12.616Z,1088
2017-05-16T09:53:13.314Z,1092
2017-05-16T09:54:13.299Z,1092
2017-05-16T09:55:13.012Z,1096
2017-05-16T09:56:13.347Z,1108
2017-05-16T09:57:13.064Z,1104
2017-05-16T09:58:13.662Z,1104
2017-05-16T09:59:12.811Z,1112
2017-05-16T10:00:13.469Z,1112
2017-05-16T10:01:13.184Z,1116
2017-05-16T10:02:13.213Z,1116
2017-05-16T10:03:13.433Z,1132
2017-05-16T10:04:13.582Z,1140
2017-05-16T10:05:13.615Z,1152
2017-05-16T10:06:13.335Z,1164
2017-05-16T10:07:13.673Z,1172
2017-05-16T10:08:13.642Z,1180
2017-05-16T10:09:13.730Z,1184
2017-05-16T10:10:13.750Z,1192
2017-05-16T10:11:13.783Z,1200
2017-05-16T10:12:13.494Z,1216
2017-05-16T10:13:13.775Z,1224
2017-05-16T10:14:13.862Z,1244
2017-05-16T10:15:13.272Z,1264
2017-05-16T10:16:13.671Z,1276
2017-05-16T10:17:13.635Z,1300
2017-05-16T10:18:14.176Z,1324
2017-05-16T10:19:13.390Z,1364
2017-05-16T10:20:13.727Z,1424
2017-05-16T10:21:14.072Z,1496
2017-05-16T10:22:13.780Z,1564
2017-05-16T10:23:13.757Z,1620
2017-05-16T10:24:13.841Z,1656
2017-05-16T10:25:13.562Z,1672
2017-05-16T10:26:14.208Z,1680
2017-05-16T10:27:13.927Z,1672
2017-05-16T10:28:14.205Z,1652
2017-05-16T10:29:13.985Z,1644
2017-05-16T10:30:14.011Z,1644
2017-05-16T10:31:13.731Z,1648
2017-05-16T10:32:14.380Z,1660
2017-05-16T10:33:14.398Z,1676
2017-05-16T10:34:14.129Z,1684
2017-05-16T10:36:13.793Z,1628
2017-05-16T10:37:14.211Z,1588
2017-05-16T10:38:14.542Z,1568
2017-05-16T10:39:14.577Z,1564
2017-05-16T10:40:14.615Z,1544
2017-05-16T10:41:14.325Z,1544
2017-05-16T10:42:14.673Z,1548
2017-05-16T10:43:14.949Z,1556
2017-05-16T10:44:14.738Z,1564
2017-05-16T10:45:13.823Z,1572
2017-05-16T10:46:14.787Z,1576
2017-05-16T10:47:14.503Z,1584
2017-05-16T10:48:14.731Z,1604
2017-05-16T10:49:14.561Z,1620
2017-05-16T10:50:14.902Z,1632
2017-05-16T10:51:14.619Z,1644
2017-05-16T10:52:14.959Z,1648
2017-05-16T10:53:14.558Z,1656
2017-05-16T10:54:14.081Z,1664
2017-05-16T10:55:15.039Z,1676
2017-05-16T10:56:14.757Z,1688
2017-05-16T10:57:14.795Z,1696
2017-05-16T10:58:16.944Z,1704
2017-05-16T10:59:14.853Z,1724
2017-05-16T11:00:14.567Z,1732
2017-05-16T11:01:14.897Z,1740
2017-05-16T11:02:14.627Z,1748
2017-05-16T11:03:14.661Z,1752
2017-05-16T11:04:15.305Z,1772
2017-05-16T11:05:15.018Z,1796
2017-05-16T11:06:14.739Z,1860
2017-05-16T11:07:15.400Z,1912
2017-05-16T11:08:14.800Z,1976
2017-05-16T11:09:15.445Z,2132
2017-05-16T11:10:15.166Z,2252
2017-05-16T11:11:15.207Z,2356
2017-05-16T11:12:15.224Z,2496
2017-05-16T11:13:15.246Z,2704
2017-05-16T11:14:15.593Z,2864
2017-05-16T11:15:15.006Z,2952
2017-05-16T11:16:15.667Z,3020
2017-05-16T11:17:15.679Z,3124
2017-05-16T11:18:15.084Z,3204
2017-05-16T11:19:15.120Z,3244
2017-05-16T11:20:15.778Z,3288
2017-05-16T11:21:15.797Z,3348
2017-05-16T11:22:15.836Z,3388
2017-05-16T11:23:15.232Z,3428
2017-05-16T11:24:15.884Z,3452
2017-05-16T11:25:15.601Z,3496
2017-05-16T11:26:15.637Z,3564
2017-05-16T11:27:15.663Z,3648
2017-05-16T11:28:16.012Z,3724
2017-05-16T11:29:16.036Z,3820
2017-05-16T11:30:15.750Z,3920
2017-05-16T11:31:15.778Z,4008
2017-05-16T11:32:15.807Z,4096
2017-05-16T11:33:16.195Z,4204
2017-05-16T11:34:16.164Z,4336
2017-05-16T11:35:15.897Z,4504
2017-05-16T11:36:15.926Z,5368
2017-05-16T11:37:15.963Z,19232
2017-05-16T11:38:16.288Z,34624
2017-05-16T11:39:16.575Z,37824
2017-05-16T11:40:16.035Z,40288
2017-05-16T11:41:16.385Z,45120
2017-05-16T11:42:16.414Z,52032
2017-05-16T11:43:16.446Z,53504
2017-05-16T11:44:16.092Z,53600
2017-05-16T11:45:16.504Z,51104
2017-05-16T11:46:16.529Z,49792
2017-05-16T11:47:16.255Z,46464
2017-05-16T11:48:16.594Z,41856
2017-05-16T11:49:16.196Z,37952
2017-05-16T11:50:16.661Z,37696
2017-05-16T11:51:16.685Z,38976
2017-05-16T11:52:16.718Z,39520
2017-05-16T11:53:16.120Z,41920
2017-05-16T11:54:17.031Z,44448
2017-05-16T11:55:16.812Z,49056
2017-05-16T11:56:16.845Z,50496
2017-05-16T11:57:16.874Z,49728
2017-05-16T11:58:16.589Z,50080
2017-05-16T11:59:16.822Z,47424
2017-05-16T12:00:16.648Z,46176
2017-05-16T12:01:17.005Z,45568
2017-05-16T12:02:17.034Z,44224
2017-05-16T12:03:17.067Z,41952
2017-05-16T12:04:16.670Z,38080
2017-05-16T12:05:17.129Z,37440
2017-05-16T12:06:16.849Z,39904
2017-05-16T12:07:17.198Z,41152
2017-05-16T12:08:17.221Z,39840
2017-05-16T12:09:17.143Z,37760
2017-05-16T12:10:16.996Z,38272
2017-05-16T12:11:17.005Z,39904
2017-05-16T12:12:17.405Z,39648
2017-05-16T12:13:16.758Z,38688
2017-05-16T12:14:17.314Z,39168
2017-05-16T12:15:17.148Z,38368
2017-05-16T12:16:17.484Z,37280
2017-05-16T12:17:17.521Z,38016
2017-05-16T12:18:17.552Z,39968
2017-05-16T12:19:17.790Z,39968
2017-05-16T12:20:17.312Z,35264
2017-05-16T12:21:17.661Z,28416
2017-05-16T12:22:17.378Z,26560
2017-05-16T12:23:17.410Z,28576
2017-05-16T12:24:17.015Z,32576
2017-05-16T12:25:17.485Z,36512
2017-05-16T12:26:17.508Z,41216
2017-05-16T12:27:17.592Z,45664
2017-05-16T12:28:17.580Z,47200
2017-05-16T12:29:17.870Z,47712
2017-05-16T12:30:17.963Z,50816
2017-05-16T12:31:17.675Z,50784
2017-05-16T12:32:18.022Z,48864
2017-05-16T12:33:18.055Z,50176
2017-05-16T12:34:18.354Z,51872
2017-05-16T12:35:18.124Z,51232
2017-05-16T12:36:17.853Z,46816
2017-05-16T12:37:17.888Z,43840
2017-05-16T12:38:18.234Z,43968
2017-05-16T12:39:18.150Z,37984
2017-05-16T12:40:18.308Z,22592
2017-05-16T12:41:18.024Z,14276
2017-05-16T12:42:18.368Z,13236
2017-05-16T12:43:18.403Z,12900
2017-05-16T12:44:18.629Z,12844
2017-05-16T12:45:17.846Z,12932
2017-05-16T12:46:18.500Z,13060
2017-05-16T12:47:18.545Z,13252
2017-05-16T12:48:18.570Z,13680
2017-05-16T12:49:18.821Z,16484
2017-05-16T12:50:18.335Z,32928
2017-05-16T12:51:18.737Z,52192
2017-05-16T12:52:18.400Z,65920
2017-05-16T12:53:18.745Z,67200
2017-05-16T12:54:18.358Z,66016
2017-05-16T12:55:18.815Z,67968
2017-05-16T12:56:18.847Z,69184
2017-05-16T12:57:18.884Z,65952
2017-05-16T12:58:18.301Z,64832
2017-05-16T12:59:18.582Z,58976
2017-05-16T13:00:18.990Z,54048
2017-05-16T13:01:18.714Z,51424
2017-05-16T13:02:18.764Z,47424
2017-05-16T13:03:19.089Z,43200
2017-05-16T13:04:19.333Z,40288
2017-05-16T13:05:18.858Z,37120
2017-05-16T13:06:18.895Z,35328
2017-05-16T13:07:19.236Z,35136
2017-05-16T13:08:19.270Z,36416
2017-05-16T13:09:19.559Z,38752
2017-05-16T13:10:19.094Z,40608
2017-05-16T13:11:19.067Z,42432
2017-05-16T13:12:18.788Z,45984
2017-05-16T13:13:19.453Z,52864
2017-05-16T13:14:19.108Z,61952
2017-05-16T13:15:19.530Z,65824
2017-05-16T13:16:19.559Z,61856
2017-05-16T13:17:19.588Z,56800
2017-05-16T13:18:19.628Z,52256
2017-05-16T13:19:19.861Z,46272
2017-05-16T13:20:19.695Z,40416
2017-05-16T13:21:19.727Z,38592
2017-05-16T13:22:19.764Z,37024
2017-05-16T13:23:19.796Z,36416
2017-05-16T13:24:19.731Z,36096
2017-05-16T13:25:19.870Z,35456
2017-05-16T13:26:19.595Z,35712
2017-05-16T13:27:19.935Z,35776
2017-05-16T13:28:19.975Z,36032
2017-05-16T13:29:20.209Z,34208
2017-05-16T13:30:20.041Z,30112
2017-05-16T13:31:20.082Z,25984
2017-05-16T13:32:19.500Z,21952
2017-05-16T13:33:20.148Z,20512
2017-05-16T13:34:20.440Z,21504
2017-05-16T13:35:19.655Z,21056
2017-05-16T13:36:20.262Z,18592
2017-05-16T13:37:19.981Z,17524
2017-05-16T13:38:20.008Z,17236
2017-05-16T13:39:20.368Z,16716
2017-05-16T13:40:20.133Z,16340
2017-05-16T13:41:20.439Z,15820
2017-05-16T13:42:19.848Z,15316
2017-05-16T13:43:20.505Z,15256
2017-05-16T13:44:20.544Z,15216
2017-05-16T13:45:20.577Z,15100
2017-05-16T13:46:20.662Z,14912
2017-05-16T13:47:20.645Z,14736
2017-05-16T13:48:20.689Z,14508
2017-05-16T13:49:20.717Z,14504